sensor_id;sensor_type;location;lat;lon;timestamp;P1;durP1;ratioP1;P2;durP2;ratioP2
5890;SDS011;2971;52.420;7.080;2022-12-29T00:01:22;4.43;;;2.97;;
5890;SDS011;2971;52.420;7.080;2022-12-29T00:03:48;3.60;;;3.30;;
5890;SDS011;2971;52.420;7.080;2022-12-29T00:06:13;3.97;;;3.40;;
5890;SDS011;2971;52.420;7.080;2022-12-29T00:08:39;3.80;;;3.37;;
5890;SDS011;2971;52.420;7.080;2022-12-29T00:11:26;3.47;;;3.17;;
5890;SDS011;2971;52.420;7.080;2022-12-29T00:13:51;4.77;;;3.20;;
5890;SDS011;2971;52.420;7.080;2022-12-29T00:16:35;4.80;;;2.87;;
5890;SDS011;2971;52.420;7.080;2022-12-29T00:19:02;3.50;;;3.20;;
5890;SDS011;2971;52.420;7.080;2022-12-29T00:21:28;3.13;;;2.60;;
5890;SDS011;2971;52.420;7.080;2022-12-29T00:24:14;2.90;;;2.70;;
5890;SDS011;2971;52.420;7.080;2022-12-29T00:29:46;3.17;;;2.87;;
5890;SDS011;2971;52.420;7.080;2022-12-29T00:32:31;2.90;;;2.70;;
5890;SDS011;2971;52.420;7.080;2022-12-29T00:35:20;3.00;;;2.60;;
5890;SDS011;2971;52.420;7.080;2022-12-29T00:37:58;2.90;;;2.70;;
5890;SDS011;2971;52.420;7.080;2022-12-29T00:40:44;3.00;;;2.43;;
5890;SDS011;2971;52.420;7.080;2022-12-29T00:43:28;4.57;;;2.80;;
5890;SDS011;2971;52.420;7.080;2022-12-29T00:46:12;2.57;;;2.37;;
5890;SDS011;2971;52.420;7.080;2022-12-29T00:48:37;3.00;;;2.70;;
5890;SDS011;2971;52.420;7.080;2022-12-29T00:51:21;2.90;;;2.60;;
5890;SDS011;2971;52.420;7.080;2022-12-29T00:53:46;2.90;;;2.70;;
5890;SDS011;2971;52.420;7.080;2022-12-29T00:56:12;3.47;;;2.70;;
5890;SDS011;2971;52.420;7.080;2022-12-29T00:58:37;3.10;;;2.80;;
5890;SDS011;2971;52.420;7.080;2022-12-29T01:01:03;2.97;;;2.60;;
5890;SDS011;2971;52.420;7.080;2022-12-29T01:03:29;2.73;;;2.53;;
5890;SDS011;2971;52.420;7.080;2022-12-29T01:05:54;2.70;;;2.50;;
5890;SDS011;2971;52.420;7.080;2022-12-29T01:08:20;2.97;;;2.77;;
5890;SDS011;2971;52.420;7.080;2022-12-29T01:10:45;2.73;;;2.40;;
5890;SDS011;2971;52.420;7.080;2022-12-29T01:13:11;2.60;;;2.40;;
5890;SDS011;2971;52.420;7.080;2022-12-29T01:15:36;2.90;;;2.70;;
5890;SDS011;2971;52.420;7.080;2022-12-29T01:18:01;2.73;;;2.50;;
5890;SDS011;2971;52.420;7.080;2022-12-29T01:20:27;2.97;;;2.67;;
5890;SDS011;2971;52.420;7.080;2022-12-29T01:22:53;3.40;;;2.67;;
5890;SDS011;2971;52.420;7.080;2022-12-29T01:25:19;3.23;;;2.33;;
5890;SDS011;2971;52.420;7.080;2022-12-29T01:27:44;3.23;;;2.30;;
5890;SDS011;2971;52.420;7.080;2022-12-29T01:30:10;2.57;;;2.37;;
5890;SDS011;2971;52.420;7.080;2022-12-29T01:32:36;2.47;;;2.10;;
5890;SDS011;2971;52.420;7.080;2022-12-29T01:35:01;2.43;;;2.23;;
5890;SDS011;2971;52.420;7.080;2022-12-29T01:37:27;2.80;;;2.30;;
5890;SDS011;2971;52.420;7.080;2022-12-29T01:39:52;2.43;;;2.07;;
5890;SDS011;2971;52.420;7.080;2022-12-29T01:42:19;2.50;;;2.30;;
5890;SDS011;2971;52.420;7.080;2022-12-29T01:44:55;2.10;;;2.00;;
5890;SDS011;2971;52.420;7.080;2022-12-29T01:50:05;1.90;;;1.80;;
5890;SDS011;2971;52.420;7.080;2022-12-29T01:52:33;1.80;;;1.70;;
5890;SDS011;2971;52.420;7.080;2022-12-29T01:55:00;3.27;;;1.80;;
5890;SDS011;2971;52.420;7.080;2022-12-29T01:57:29;1.90;;;1.60;;
5890;SDS011;2971;52.420;7.080;2022-12-29T01:59:58;1.97;;;1.60;;
5890;SDS011;2971;52.420;7.080;2022-12-29T02:02:26;1.60;;;1.50;;
5890;SDS011;2971;52.420;7.080;2022-12-29T02:04:52;2.17;;;1.50;;
5890;SDS011;2971;52.420;7.080;2022-12-29T02:07:19;2.00;;;1.60;;
5890;SDS011;2971;52.420;7.080;2022-12-29T02:09:46;2.17;;;1.50;;
5890;SDS011;2971;52.420;7.080;2022-12-29T02:12:13;2.17;;;1.50;;
5890;SDS011;2971;52.420;7.080;2022-12-29T02:14:38;3.20;;;1.30;;
5890;SDS011;2971;52.420;7.080;2022-12-29T02:17:19;1.93;;;1.50;;
5890;SDS011;2971;52.420;7.080;2022-12-29T02:30:50;1.87;;;1.50;;
5890;SDS011;2971;52.420;7.080;2022-12-29T02:38:43;1.70;;;1.60;;
5890;SDS011;2971;52.420;7.080;2022-12-29T02:41:33;1.70;;;1.60;;
5890;SDS011;2971;52.420;7.080;2022-12-29T02:49:49;2.30;;;2.10;;
5890;SDS011;2971;52.420;7.080;2022-12-29T02:52:23;2.30;;;2.10;;
5890;SDS011;2971;52.420;7.080;2022-12-29T02:54:53;2.20;;;2.00;;
5890;SDS011;2971;52.420;7.080;2022-12-29T02:59:57;2.40;;;2.20;;
5890;SDS011;2971;52.420;7.080;2022-12-29T03:13:24;2.30;;;2.10;;
5890;SDS011;2971;52.420;7.080;2022-12-29T03:21:51;5.40;;;2.33;;
5890;SDS011;2971;52.420;7.080;2022-12-29T03:24:40;2.90;;;2.17;;
5890;SDS011;2971;52.420;7.080;2022-12-29T03:27:08;3.13;;;2.10;;
5890;SDS011;2971;52.420;7.080;2022-12-29T03:29:37;2.20;;;1.90;;
5890;SDS011;2971;52.420;7.080;2022-12-29T03:32:05;2.60;;;2.30;;
5890;SDS011;2971;52.420;7.080;2022-12-29T03:34:32;4.43;;;2.27;;
5890;SDS011;2971;52.420;7.080;2022-12-29T03:36:59;3.53;;;2.30;;
5890;SDS011;2971;52.420;7.080;2022-12-29T03:39:28;3.83;;;2.30;;
5890;SDS011;2971;52.420;7.080;2022-12-29T03:42:01;2.77;;;2.23;;
5890;SDS011;2971;52.420;7.080;2022-12-29T03:44:32;2.97;;;2.20;;
5890;SDS011;2971;52.420;7.080;2022-12-29T03:47:01;2.87;;;2.30;;
5890;SDS011;2971;52.420;7.080;2022-12-29T03:49:26;2.77;;;2.50;;
5890;SDS011;2971;52.420;7.080;2022-12-29T03:51:52;4.10;;;2.47;;
5890;SDS011;2971;52.420;7.080;2022-12-29T03:54:17;3.13;;;2.40;;
5890;SDS011;2971;52.420;7.080;2022-12-29T03:56:43;2.90;;;2.30;;
5890;SDS011;2971;52.420;7.080;2022-12-29T03:59:08;3.33;;;2.10;;
5890;SDS011;2971;52.420;7.080;2022-12-29T04:01:33;3.43;;;2.20;;
5890;SDS011;2971;52.420;7.080;2022-12-29T04:03:59;4.33;;;2.10;;
5890;SDS011;2971;52.420;7.080;2022-12-29T04:06:24;5.33;;;2.17;;
5890;SDS011;2971;52.420;7.080;2022-12-29T04:08:50;3.20;;;2.10;;
5890;SDS011;2971;52.420;7.080;2022-12-29T04:11:15;4.43;;;2.03;;
5890;SDS011;2971;52.420;7.080;2022-12-29T04:13:40;3.20;;;2.23;;
5890;SDS011;2971;52.420;7.080;2022-12-29T04:16:06;5.47;;;2.40;;
5890;SDS011;2971;52.420;7.080;2022-12-29T04:18:32;5.30;;;2.53;;
5890;SDS011;2971;52.420;7.080;2022-12-29T04:20:57;4.73;;;2.80;;
5890;SDS011;2971;52.420;7.080;2022-12-29T04:23:29;3.37;;;2.50;;
5890;SDS011;2971;52.420;7.080;2022-12-29T04:25:55;3.13;;;2.70;;
5890;SDS011;2971;52.420;7.080;2022-12-29T04:28:21;5.03;;;2.40;;
5890;SDS011;2971;52.420;7.080;2022-12-29T04:30:46;3.60;;;2.30;;
5890;SDS011;2971;52.420;7.080;2022-12-29T04:33:12;5.47;;;2.20;;
5890;SDS011;2971;52.420;7.080;2022-12-29T04:35:38;3.97;;;2.10;;
5890;SDS011;2971;52.420;7.080;2022-12-29T04:38:03;4.53;;;2.13;;
5890;SDS011;2971;52.420;7.080;2022-12-29T04:40:30;2.53;;;2.00;;
5890;SDS011;2971;52.420;7.080;2022-12-29T04:42:55;4.30;;;1.97;;
5890;SDS011;2971;52.420;7.080;2022-12-29T04:45:21;3.00;;;1.67;;
5890;SDS011;2971;52.420;7.080;2022-12-29T04:47:46;3.90;;;1.87;;
5890;SDS011;2971;52.420;7.080;2022-12-29T04:50:12;3.40;;;1.97;;
5890;SDS011;2971;52.420;7.080;2022-12-29T04:52:38;3.70;;;1.60;;
5890;SDS011;2971;52.420;7.080;2022-12-29T04:55:04;3.60;;;1.90;;
5890;SDS011;2971;52.420;7.080;2022-12-29T04:57:30;3.70;;;1.83;;
5890;SDS011;2971;52.420;7.080;2022-12-29T04:59:55;3.20;;;1.70;;
5890;SDS011;2971;52.420;7.080;2022-12-29T05:02:21;2.83;;;1.63;;
5890;SDS011;2971;52.420;7.080;2022-12-29T05:04:46;3.43;;;1.53;;
5890;SDS011;2971;52.420;7.080;2022-12-29T05:07:12;2.47;;;1.60;;
5890;SDS011;2971;52.420;7.080;2022-12-29T05:09:37;3.43;;;1.70;;
5890;SDS011;2971;52.420;7.080;2022-12-29T05:12:03;2.33;;;1.47;;
5890;SDS011;2971;52.420;7.080;2022-12-29T05:14:29;4.10;;;1.70;;
5890;SDS011;2971;52.420;7.080;2022-12-29T05:16:54;2.90;;;1.53;;
5890;SDS011;2971;52.420;7.080;2022-12-29T05:19:19;3.70;;;1.60;;
5890;SDS011;2971;52.420;7.080;2022-12-29T05:21:45;4.80;;;1.73;;
5890;SDS011;2971;52.420;7.080;2022-12-29T05:24:10;2.63;;;1.50;;
5890;SDS011;2971;52.420;7.080;2022-12-29T05:26:36;3.40;;;1.90;;
5890;SDS011;2971;52.420;7.080;2022-12-29T05:29:01;3.30;;;1.57;;
5890;SDS011;2971;52.420;7.080;2022-12-29T05:31:27;4.07;;;1.93;;
5890;SDS011;2971;52.420;7.080;2022-12-29T05:33:53;4.70;;;1.73;;
5890;SDS011;2971;52.420;7.080;2022-12-29T05:36:18;5.70;;;1.80;;
5890;SDS011;2971;52.420;7.080;2022-12-29T05:38:44;3.43;;;1.90;;
5890;SDS011;2971;52.420;7.080;2022-12-29T05:41:09;2.43;;;1.30;;
5890;SDS011;2971;52.420;7.080;2022-12-29T05:43:35;3.50;;;1.73;;
5890;SDS011;2971;52.420;7.080;2022-12-29T05:46:00;4.17;;;1.77;;
5890;SDS011;2971;52.420;7.080;2022-12-29T05:48:27;2.70;;;1.87;;
5890;SDS011;2971;52.420;7.080;2022-12-29T05:50:52;3.80;;;2.00;;
5890;SDS011;2971;52.420;7.080;2022-12-29T05:53:18;4.43;;;1.90;;
5890;SDS011;2971;52.420;7.080;2022-12-29T05:55:44;4.00;;;1.90;;
5890;SDS011;2971;52.420;7.080;2022-12-29T05:58:10;2.00;;;1.33;;
5890;SDS011;2971;52.420;7.080;2022-12-29T06:00:35;3.50;;;1.50;;
5890;SDS011;2971;52.420;7.080;2022-12-29T06:03:01;4.27;;;1.70;;
5890;SDS011;2971;52.420;7.080;2022-12-29T06:05:26;5.73;;;1.90;;
5890;SDS011;2971;52.420;7.080;2022-12-29T06:07:52;4.70;;;2.00;;
5890;SDS011;2971;52.420;7.080;2022-12-29T06:10:17;3.07;;;1.63;;
5890;SDS011;2971;52.420;7.080;2022-12-29T06:12:43;3.00;;;1.60;;
5890;SDS011;2971;52.420;7.080;2022-12-29T06:15:08;4.80;;;1.97;;
5890;SDS011;2971;52.420;7.080;2022-12-29T06:17:34;4.97;;;1.70;;
5890;SDS011;2971;52.420;7.080;2022-12-29T06:20:00;3.63;;;1.70;;
5890;SDS011;2971;52.420;7.080;2022-12-29T06:22:26;5.23;;;1.83;;
5890;SDS011;2971;52.420;7.080;2022-12-29T06:24:51;3.23;;;1.70;;
5890;SDS011;2971;52.420;7.080;2022-12-29T06:27:16;5.33;;;2.00;;
5890;SDS011;2971;52.420;7.080;2022-12-29T06:29:42;6.00;;;2.00;;
5890;SDS011;2971;52.420;7.080;2022-12-29T06:32:08;4.53;;;1.73;;
5890;SDS011;2971;52.420;7.080;2022-12-29T06:34:33;5.13;;;1.97;;
5890;SDS011;2971;52.420;7.080;2022-12-29T06:36:59;5.53;;;2.20;;
5890;SDS011;2971;52.420;7.080;2022-12-29T06:39:24;4.97;;;1.90;;
5890;SDS011;2971;52.420;7.080;2022-12-29T06:41:53;6.83;;;2.23;;
5890;SDS011;2971;52.420;7.080;2022-12-29T06:44:19;5.83;;;2.50;;
5890;SDS011;2971;52.420;7.080;2022-12-29T06:46:45;6.87;;;2.10;;
5890;SDS011;2971;52.420;7.080;2022-12-29T06:49:11;7.17;;;2.17;;
5890;SDS011;2971;52.420;7.080;2022-12-29T06:51:36;6.33;;;2.40;;
5890;SDS011;2971;52.420;7.080;2022-12-29T06:54:01;5.77;;;2.20;;
5890;SDS011;2971;52.420;7.080;2022-12-29T06:56:27;8.80;;;2.30;;
5890;SDS011;2971;52.420;7.080;2022-12-29T06:58:54;4.93;;;2.40;;
5890;SDS011;2971;52.420;7.080;2022-12-29T07:01:19;3.23;;;1.93;;
5890;SDS011;2971;52.420;7.080;2022-12-29T07:03:45;4.20;;;1.80;;
5890;SDS011;2971;52.420;7.080;2022-12-29T07:06:10;4.63;;;1.87;;
5890;SDS011;2971;52.420;7.080;2022-12-29T07:08:35;5.77;;;2.30;;
5890;SDS011;2971;52.420;7.080;2022-12-29T07:11:01;6.30;;;2.60;;
5890;SDS011;2971;52.420;7.080;2022-12-29T07:13:26;4.57;;;2.17;;
5890;SDS011;2971;52.420;7.080;2022-12-29T07:15:52;4.90;;;2.23;;
5890;SDS011;2971;52.420;7.080;2022-12-29T07:18:17;7.10;;;2.50;;
5890;SDS011;2971;52.420;7.080;2022-12-29T07:20:42;7.80;;;2.33;;
5890;SDS011;2971;52.420;7.080;2022-12-29T07:23:08;7.37;;;2.20;;
5890;SDS011;2971;52.420;7.080;2022-12-29T07:25:33;5.63;;;2.30;;
5890;SDS011;2971;52.420;7.080;2022-12-29T07:28:01;6.43;;;2.10;;
5890;SDS011;2971;52.420;7.080;2022-12-29T07:30:26;4.43;;;2.23;;
5890;SDS011;2971;52.420;7.080;2022-12-29T07:32:52;6.33;;;2.60;;
5890;SDS011;2971;52.420;7.080;2022-12-29T07:35:17;6.30;;;2.37;;
5890;SDS011;2971;52.420;7.080;2022-12-29T07:37:43;7.33;;;2.10;;
5890;SDS011;2971;52.420;7.080;2022-12-29T07:40:09;7.03;;;2.30;;
5890;SDS011;2971;52.420;7.080;2022-12-29T07:42:35;7.03;;;2.40;;
5890;SDS011;2971;52.420;7.080;2022-12-29T07:45:00;9.20;;;2.50;;
5890;SDS011;2971;52.420;7.080;2022-12-29T07:47:26;7.13;;;2.40;;
5890;SDS011;2971;52.420;7.080;2022-12-29T07:49:51;8.37;;;2.50;;
5890;SDS011;2971;52.420;7.080;2022-12-29T07:52:17;5.90;;;2.00;;
5890;SDS011;2971;52.420;7.080;2022-12-29T07:54:42;5.60;;;2.17;;
5890;SDS011;2971;52.420;7.080;2022-12-29T07:57:07;7.73;;;2.33;;
5890;SDS011;2971;52.420;7.080;2022-12-29T07:59:33;8.97;;;2.90;;
5890;SDS011;2971;52.420;7.080;2022-12-29T08:01:58;6.37;;;2.10;;
5890;SDS011;2971;52.420;7.080;2022-12-29T08:04:24;7.10;;;2.60;;
5890;SDS011;2971;52.420;7.080;2022-12-29T08:06:49;6.20;;;1.97;;
5890;SDS011;2971;52.420;7.080;2022-12-29T08:09:14;6.83;;;2.27;;
5890;SDS011;2971;52.420;7.080;2022-12-29T08:11:40;4.97;;;2.10;;
5890;SDS011;2971;52.420;7.080;2022-12-29T08:14:06;6.37;;;1.90;;
5890;SDS011;2971;52.420;7.080;2022-12-29T08:16:31;4.73;;;2.10;;
5890;SDS011;2971;52.420;7.080;2022-12-29T08:18:57;6.10;;;1.93;;
5890;SDS011;2971;52.420;7.080;2022-12-29T08:21:24;7.03;;;2.10;;
5890;SDS011;2971;52.420;7.080;2022-12-29T08:23:49;4.47;;;1.90;;
5890;SDS011;2971;52.420;7.080;2022-12-29T08:26:15;6.60;;;2.10;;
5890;SDS011;2971;52.420;7.080;2022-12-29T08:28:40;4.40;;;1.80;;
5890;SDS011;2971;52.420;7.080;2022-12-29T08:31:05;7.57;;;2.83;;
5890;SDS011;2971;52.420;7.080;2022-12-29T08:33:33;5.33;;;2.20;;
5890;SDS011;2971;52.420;7.080;2022-12-29T08:35:59;7.33;;;2.50;;
5890;SDS011;2971;52.420;7.080;2022-12-29T08:38:28;7.50;;;2.40;;
5890;SDS011;2971;52.420;7.080;2022-12-29T08:40:54;5.53;;;2.27;;
5890;SDS011;2971;52.420;7.080;2022-12-29T08:43:19;8.63;;;2.33;;
5890;SDS011;2971;52.420;7.080;2022-12-29T08:45:45;6.83;;;2.50;;
5890;SDS011;2971;52.420;7.080;2022-12-29T08:48:10;6.87;;;2.37;;
5890;SDS011;2971;52.420;7.080;2022-12-29T08:50:35;8.93;;;2.53;;
5890;SDS011;2971;52.420;7.080;2022-12-29T08:53:01;6.70;;;2.47;;
5890;SDS011;2971;52.420;7.080;2022-12-29T08:55:26;7.03;;;2.60;;
5890;SDS011;2971;52.420;7.080;2022-12-29T08:57:51;7.40;;;2.60;;
5890;SDS011;2971;52.420;7.080;2022-12-29T09:00:17;7.33;;;2.60;;
5890;SDS011;2971;52.420;7.080;2022-12-29T09:02:43;7.70;;;2.83;;
5890;SDS011;2971;52.420;7.080;2022-12-29T09:05:08;7.33;;;2.63;;
5890;SDS011;2971;52.420;7.080;2022-12-29T09:07:34;7.33;;;2.73;;
5890;SDS011;2971;52.420;7.080;2022-12-29T09:10:00;6.87;;;2.80;;
5890;SDS011;2971;52.420;7.080;2022-12-29T09:12:26;7.53;;;2.73;;
5890;SDS011;2971;52.420;7.080;2022-12-29T09:14:51;7.70;;;2.60;;
5890;SDS011;2971;52.420;7.080;2022-12-29T09:17:16;7.80;;;2.70;;
5890;SDS011;2971;52.420;7.080;2022-12-29T09:20:00;6.60;;;2.43;;
5890;SDS011;2971;52.420;7.080;2022-12-29T09:22:26;6.80;;;2.63;;
5890;SDS011;2971;52.420;7.080;2022-12-29T09:24:51;9.53;;;2.73;;
5890;SDS011;2971;52.420;7.080;2022-12-29T09:27:16;8.20;;;2.60;;
5890;SDS011;2971;52.420;7.080;2022-12-29T09:29:42;10.60;;;2.93;;
5890;SDS011;2971;52.420;7.080;2022-12-29T09:32:07;8.90;;;2.47;;
5890;SDS011;2971;52.420;7.080;2022-12-29T09:34:33;7.87;;;2.80;;
5890;SDS011;2971;52.420;7.080;2022-12-29T09:36:58;9.73;;;3.20;;
5890;SDS011;2971;52.420;7.080;2022-12-29T09:39:23;7.13;;;2.30;;
5890;SDS011;2971;52.420;7.080;2022-12-29T09:41:57;8.40;;;2.63;;
5890;SDS011;2971;52.420;7.080;2022-12-29T09:47:02;6.30;;;2.57;;
5890;SDS011;2971;52.420;7.080;2022-12-29T09:52:15;9.97;;;2.90;;
5890;SDS011;2971;52.420;7.080;2022-12-29T09:57:47;8.60;;;2.83;;
5890;SDS011;2971;52.420;7.080;2022-12-29T10:00:19;10.73;;;2.70;;
5890;SDS011;2971;52.420;7.080;2022-12-29T10:02:46;8.93;;;2.97;;
5890;SDS011;2971;52.420;7.080;2022-12-29T10:24:51;12.57;;;3.10;;
5890;SDS011;2971;52.420;7.080;2022-12-29T10:27:18;6.80;;;2.50;;
5890;SDS011;2971;52.420;7.080;2022-12-29T10:29:45;8.83;;;2.67;;
5890;SDS011;2971;52.420;7.080;2022-12-29T10:34:49;9.27;;;2.70;;
5890;SDS011;2971;52.420;7.080;2022-12-29T10:40:13;8.43;;;2.87;;
5890;SDS011;2971;52.420;7.080;2022-12-29T10:42:50;11.73;;;2.57;;
5890;SDS011;2971;52.420;7.080;2022-12-29T10:45:18;8.83;;;2.63;;
5890;SDS011;2971;52.420;7.080;2022-12-29T10:47:53;7.73;;;2.30;;
5890;SDS011;2971;52.420;7.080;2022-12-29T10:50:22;7.57;;;2.90;;
5890;SDS011;2971;52.420;7.080;2022-12-29T10:52:48;8.93;;;2.63;;
5890;SDS011;2971;52.420;7.080;2022-12-29T10:55:19;8.40;;;2.87;;
5890;SDS011;2971;52.420;7.080;2022-12-29T10:57:53;6.60;;;2.33;;
5890;SDS011;2971;52.420;7.080;2022-12-29T11:00:21;8.13;;;2.33;;
5890;SDS011;2971;52.420;7.080;2022-12-29T11:05:55;8.23;;;2.27;;
5890;SDS011;2971;52.420;7.080;2022-12-29T11:08:25;6.53;;;2.27;;
5890;SDS011;2971;52.420;7.080;2022-12-29T11:11:03;6.93;;;2.00;;
5890;SDS011;2971;52.420;7.080;2022-12-29T11:13:31;7.20;;;2.17;;
5890;SDS011;2971;52.420;7.080;2022-12-29T11:15:58;6.47;;;1.97;;
5890;SDS011;2971;52.420;7.080;2022-12-29T11:18:37;5.37;;;2.30;;
5890;SDS011;2971;52.420;7.080;2022-12-29T11:21:04;7.60;;;2.13;;
5890;SDS011;2971;52.420;7.080;2022-12-29T11:24:26;5.47;;;2.33;;
5890;SDS011;2971;52.420;7.080;2022-12-29T11:26:54;6.10;;;2.40;;
5890;SDS011;2971;52.420;7.080;2022-12-29T11:29:24;4.90;;;2.10;;
5890;SDS011;2971;52.420;7.080;2022-12-29T11:32:10;7.63;;;2.20;;
5890;SDS011;2971;52.420;7.080;2022-12-29T11:35:05;4.30;;;1.77;;
5890;SDS011;2971;52.420;7.080;2022-12-29T11:37:38;8.40;;;2.80;;
5890;SDS011;2971;52.420;7.080;2022-12-29T11:40:15;5.23;;;2.10;;
5890;SDS011;2971;52.420;7.080;2022-12-29T11:42:47;5.47;;;2.00;;
5890;SDS011;2971;52.420;7.080;2022-12-29T11:47:42;5.80;;;2.33;;
5890;SDS011;2971;52.420;7.080;2022-12-29T11:50:24;5.23;;;1.90;;
5890;SDS011;2971;52.420;7.080;2022-12-29T11:52:58;6.87;;;2.03;;
5890;SDS011;2971;52.420;7.080;2022-12-29T11:55:39;4.90;;;2.10;;
5890;SDS011;2971;52.420;7.080;2022-12-29T11:58:05;6.50;;;2.67;;
5890;SDS011;2971;52.420;7.080;2022-12-29T12:00:32;5.37;;;2.27;;
5890;SDS011;2971;52.420;7.080;2022-12-29T12:05:59;7.67;;;2.10;;
5890;SDS011;2971;52.420;7.080;2022-12-29T12:08:37;6.20;;;2.23;;
5890;SDS011;2971;52.420;7.080;2022-12-29T12:16:11;6.27;;;2.60;;
5890;SDS011;2971;52.420;7.080;2022-12-29T12:21:10;7.87;;;3.50;;
5890;SDS011;2971;52.420;7.080;2022-12-29T12:26:28;7.07;;;2.90;;
5890;SDS011;2971;52.420;7.080;2022-12-29T12:28:59;7.23;;;2.60;;
5890;SDS011;2971;52.420;7.080;2022-12-29T12:31:43;7.07;;;2.53;;
5890;SDS011;2971;52.420;7.080;2022-12-29T12:34:14;10.30;;;2.87;;
5890;SDS011;2971;52.420;7.080;2022-12-29T12:39:31;8.43;;;3.00;;
5890;SDS011;2971;52.420;7.080;2022-12-29T12:48:36;7.80;;;3.23;;
5890;SDS011;2971;52.420;7.080;2022-12-29T13:03:44;14.77;;;4.27;;
5890;SDS011;2971;52.420;7.080;2022-12-29T13:22:38;9.33;;;3.57;;
5890;SDS011;2971;52.420;7.080;2022-12-29T13:39:01;8.23;;;3.70;;
5890;SDS011;2971;52.420;7.080;2022-12-29T13:41:33;10.23;;;3.53;;
5890;SDS011;2971;52.420;7.080;2022-12-29T13:44:04;8.63;;;3.43;;
5890;SDS011;2971;52.420;7.080;2022-12-29T13:46:35;8.80;;;3.50;;
5890;SDS011;2971;52.420;7.080;2022-12-29T13:49:08;8.17;;;3.10;;
5890;SDS011;2971;52.420;7.080;2022-12-29T13:51:37;7.37;;;2.87;;
5890;SDS011;2971;52.420;7.080;2022-12-29T13:56:43;7.33;;;3.57;;
5890;SDS011;2971;52.420;7.080;2022-12-29T13:59:20;10.50;;;3.70;;
5890;SDS011;2971;52.420;7.080;2022-12-29T14:02:00;10.10;;;3.90;;
5890;SDS011;2971;52.420;7.080;2022-12-29T14:04:28;8.20;;;4.07;;
5890;SDS011;2971;52.420;7.080;2022-12-29T14:07:04;8.50;;;4.10;;
5890;SDS011;2971;52.420;7.080;2022-12-29T14:12:19;9.43;;;3.93;;
5890;SDS011;2971;52.420;7.080;2022-12-29T14:14:45;10.63;;;5.30;;
5890;SDS011;2971;52.420;7.080;2022-12-29T14:17:11;14.53;;;5.20;;
5890;SDS011;2971;52.420;7.080;2022-12-29T14:19:39;13.90;;;6.00;;
5890;SDS011;2971;52.420;7.080;2022-12-29T14:22:07;13.50;;;5.73;;
5890;SDS011;2971;52.420;7.080;2022-12-29T14:29:49;13.33;;;6.17;;
5890;SDS011;2971;52.420;7.080;2022-12-29T14:34:57;12.70;;;5.80;;
5890;SDS011;2971;52.420;7.080;2022-12-29T14:37:26;12.30;;;5.40;;
5890;SDS011;2971;52.420;7.080;2022-12-29T14:42:45;12.63;;;5.03;;
5890;SDS011;2971;52.420;7.080;2022-12-29T14:47:43;12.73;;;5.50;;
5890;SDS011;2971;52.420;7.080;2022-12-29T14:57:52;11.87;;;4.90;;
5890;SDS011;2971;52.420;7.080;2022-12-29T15:02:50;11.43;;;4.53;;
5890;SDS011;2971;52.420;7.080;2022-12-29T15:05:27;11.20;;;4.67;;
5890;SDS011;2971;52.420;7.080;2022-12-29T15:07:53;12.63;;;5.40;;
5890;SDS011;2971;52.420;7.080;2022-12-29T15:10:20;11.13;;;4.63;;
5890;SDS011;2971;52.420;7.080;2022-12-29T15:12:49;11.90;;;5.07;;
5890;SDS011;2971;52.420;7.080;2022-12-29T15:17:43;9.93;;;4.20;;
5890;SDS011;2971;52.420;7.080;2022-12-29T15:20:25;10.43;;;5.03;;
5890;SDS011;2971;52.420;7.080;2022-12-29T15:25:26;11.90;;;4.80;;
5890;SDS011;2971;52.420;7.080;2022-12-29T15:27:52;11.90;;;5.43;;
5890;SDS011;2971;52.420;7.080;2022-12-29T15:30:21;12.03;;;4.57;;
5890;SDS011;2971;52.420;7.080;2022-12-29T15:32:47;12.33;;;4.77;;
5890;SDS011;2971;52.420;7.080;2022-12-29T15:35:33;15.60;;;6.10;;
5890;SDS011;2971;52.420;7.080;2022-12-29T15:38:00;16.93;;;6.57;;
5890;SDS011;2971;52.420;7.080;2022-12-29T15:45:32;9.97;;;4.27;;
5890;SDS011;2971;52.420;7.080;2022-12-29T15:47:59;10.40;;;4.33;;
5890;SDS011;2971;52.420;7.080;2022-12-29T15:50:28;9.73;;;4.40;;
5890;SDS011;2971;52.420;7.080;2022-12-29T15:52:55;9.07;;;4.10;;
5890;SDS011;2971;52.420;7.080;2022-12-29T15:55:26;6.43;;;3.30;;
5890;SDS011;2971;52.420;7.080;2022-12-29T15:57:56;9.20;;;3.70;;
5890;SDS011;2971;52.420;7.080;2022-12-29T16:00:27;8.60;;;3.83;;
5890;SDS011;2971;52.420;7.080;2022-12-29T16:02:54;7.63;;;3.70;;
5890;SDS011;2971;52.420;7.080;2022-12-29T16:05:21;10.53;;;4.37;;
5890;SDS011;2971;52.420;7.080;2022-12-29T16:07:59;8.03;;;4.20;;
5890;SDS011;2971;52.420;7.080;2022-12-29T16:10:38;10.57;;;4.57;;
5890;SDS011;2971;52.420;7.080;2022-12-29T16:15:45;5.30;;;2.90;;
5890;SDS011;2971;52.420;7.080;2022-12-29T16:18:17;6.37;;;3.00;;
5890;SDS011;2971;52.420;7.080;2022-12-29T16:20:48;5.37;;;2.87;;
5890;SDS011;2971;52.420;7.080;2022-12-29T16:23:18;6.97;;;2.90;;
5890;SDS011;2971;52.420;7.080;2022-12-29T16:25:45;6.77;;;3.43;;
5890;SDS011;2971;52.420;7.080;2022-12-29T16:28:16;6.83;;;3.30;;
5890;SDS011;2971;52.420;7.080;2022-12-29T16:30:43;7.53;;;3.70;;
5890;SDS011;2971;52.420;7.080;2022-12-29T16:33:28;7.03;;;3.20;;
5890;SDS011;2971;52.420;7.080;2022-12-29T16:35:58;8.53;;;3.30;;
5890;SDS011;2971;52.420;7.080;2022-12-29T16:38:30;6.43;;;3.50;;
5890;SDS011;2971;52.420;7.080;2022-12-29T16:40:57;10.23;;;3.57;;
5890;SDS011;2971;52.420;7.080;2022-12-29T16:43:36;7.03;;;3.77;;
5890;SDS011;2971;52.420;7.080;2022-12-29T16:48:48;8.73;;;3.97;;
5890;SDS011;2971;52.420;7.080;2022-12-29T16:51:17;7.27;;;3.13;;
5890;SDS011;2971;52.420;7.080;2022-12-29T16:53:59;12.07;;;3.87;;
5890;SDS011;2971;52.420;7.080;2022-12-29T16:56:26;11.53;;;4.17;;
5890;SDS011;2971;52.420;7.080;2022-12-29T17:01:35;9.73;;;3.90;;
5890;SDS011;2971;52.420;7.080;2022-12-29T17:04:04;10.47;;;3.77;;
5890;SDS011;2971;52.420;7.080;2022-12-29T17:06:31;8.73;;;3.53;;
5890;SDS011;2971;52.420;7.080;2022-12-29T17:08:56;6.63;;;3.67;;
5890;SDS011;2971;52.420;7.080;2022-12-29T17:14:18;7.87;;;3.83;;
5890;SDS011;2971;52.420;7.080;2022-12-29T17:16:44;9.93;;;3.60;;
5890;SDS011;2971;52.420;7.080;2022-12-29T17:19:12;7.23;;;3.47;;
5890;SDS011;2971;52.420;7.080;2022-12-29T17:21:41;7.83;;;4.13;;
5890;SDS011;2971;52.420;7.080;2022-12-29T17:24:11;9.60;;;3.70;;
5890;SDS011;2971;52.420;7.080;2022-12-29T17:26:40;9.37;;;4.10;;
5890;SDS011;2971;52.420;7.080;2022-12-29T17:29:06;7.93;;;3.60;;
5890;SDS011;2971;52.420;7.080;2022-12-29T17:31:31;11.17;;;4.57;;
5890;SDS011;2971;52.420;7.080;2022-12-29T17:33:57;7.40;;;3.70;;
5890;SDS011;2971;52.420;7.080;2022-12-29T17:36:23;9.80;;;4.03;;
5890;SDS011;2971;52.420;7.080;2022-12-29T17:38:48;8.33;;;3.70;;
5890;SDS011;2971;52.420;7.080;2022-12-29T17:41:13;10.90;;;4.17;;
5890;SDS011;2971;52.420;7.080;2022-12-29T17:43:39;9.27;;;3.87;;
5890;SDS011;2971;52.420;7.080;2022-12-29T17:46:05;10.87;;;3.80;;
5890;SDS011;2971;52.420;7.080;2022-12-29T17:48:32;10.83;;;4.00;;
5890;SDS011;2971;52.420;7.080;2022-12-29T17:50:57;8.63;;;4.00;;
5890;SDS011;2971;52.420;7.080;2022-12-29T17:53:25;8.27;;;4.30;;
5890;SDS011;2971;52.420;7.080;2022-12-29T17:55:52;9.20;;;3.90;;
5890;SDS011;2971;52.420;7.080;2022-12-29T17:58:18;9.77;;;4.40;;
5890;SDS011;2971;52.420;7.080;2022-12-29T18:00:46;8.77;;;4.23;;
5890;SDS011;2971;52.420;7.080;2022-12-29T18:03:13;9.43;;;4.10;;
5890;SDS011;2971;52.420;7.080;2022-12-29T18:05:43;9.67;;;4.10;;
5890;SDS011;2971;52.420;7.080;2022-12-29T18:08:09;8.40;;;3.90;;
5890;SDS011;2971;52.420;7.080;2022-12-29T18:10:35;8.13;;;3.70;;
5890;SDS011;2971;52.420;7.080;2022-12-29T18:13:01;8.63;;;4.30;;
5890;SDS011;2971;52.420;7.080;2022-12-29T18:15:28;8.67;;;3.90;;
5890;SDS011;2971;52.420;7.080;2022-12-29T18:18:11;8.20;;;3.90;;
5890;SDS011;2971;52.420;7.080;2022-12-29T18:20:38;8.13;;;3.70;;
5890;SDS011;2971;52.420;7.080;2022-12-29T18:23:04;8.10;;;3.93;;
5890;SDS011;2971;52.420;7.080;2022-12-29T18:25:38;7.90;;;3.57;;
5890;SDS011;2971;52.420;7.080;2022-12-29T18:28:06;8.37;;;3.90;;
5890;SDS011;2971;52.420;7.080;2022-12-29T18:30:31;8.67;;;3.57;;
5890;SDS011;2971;52.420;7.080;2022-12-29T18:32:57;8.77;;;4.13;;
5890;SDS011;2971;52.420;7.080;2022-12-29T18:35:27;9.80;;;3.43;;
5890;SDS011;2971;52.420;7.080;2022-12-29T18:37:56;6.97;;;3.20;;
5890;SDS011;2971;52.420;7.080;2022-12-29T18:40:21;8.53;;;3.90;;
5890;SDS011;2971;52.420;7.080;2022-12-29T18:42:47;7.73;;;3.77;;
5890;SDS011;2971;52.420;7.080;2022-12-29T18:45:17;9.03;;;3.83;;